Terminal Aerodrome Forecast
Issued by NWS

Home | Current Version | Previous Version | Text Only | Print | Product List | Glossary On
Versions: 1 2 3 4 5 6 7 8 9 10 11 12 13 14 15 16 17 18 19 20 21 22 23 24 25 26
000
FTUS41 KCAR 152300
TAFHUL
TAF
KHUL 152324Z 1600/1624 17015G23KT 3SM -RA BR OVC008 WS020/20050KT
     FM160500 25014G22KT 2SM -RASN BR OVC008
     FM160700 28015G23KT 1 1/2SM -SN BR OVC012
     FM161000 29017G25KT 5SM -SHSN OVC018
     FM161300 30021G29KT P6SM BKN030
     FM161600 30016G24KT P6SM SCT040
     FM162300 30009KT P6SM SCT250=

USA.gov is the U.S. government's official web portal to all federal, state and local government web resources and services.